sensor_id;sensor_type;location;lat;lon;timestamp;temperature;humidity
64858;SHT30;51335;51.148;6.950;2022-12-18T00:00:21;-6.34;97.18
64858;SHT30;51335;51.148;6.950;2022-12-18T00:00:51;-6.38;97.07
64858;SHT30;51335;51.148;6.950;2022-12-18T00:01:27;-6.41;96.95
64858;SHT30;51335;51.148;6.950;2022-12-18T00:01:58;-6.42;97.08
64858;SHT30;51335;51.148;6.950;2022-12-18T00:02:28;-6.44;97.29
64858;SHT30;51335;51.148;6.950;2022-12-18T00:02:59;-6.47;97.21
64858;SHT30;51335;51.148;6.950;2022-12-18T00:03:29;-6.47;97.56
64858;SHT30;51335;51.148;6.950;2022-12-18T00:04:01;-6.51;97.48
64858;SHT30;51335;51.148;6.950;2022-12-18T00:04:32;-6.52;97.33
64858;SHT30;51335;51.148;6.950;2022-12-18T00:05:02;-6.51;97.71
64858;SHT30;51335;51.148;6.950;2022-12-18T00:05:33;-6.51;97.61
64858;SHT30;51335;51.148;6.950;2022-12-18T00:06:03;-6.52;97.44
64858;SHT30;51335;51.148;6.950;2022-12-18T00:06:34;-6.54;97.38
64858;SHT30;51335;51.148;6.950;2022-12-18T00:07:05;-6.57;97.39
64858;SHT30;51335;51.148;6.950;2022-12-18T00:07:35;-6.55;97.48
64858;SHT30;51335;51.148;6.950;2022-12-18T00:08:06;-6.58;97.36
64858;SHT30;51335;51.148;6.950;2022-12-18T00:08:36;-6.55;97.54
64858;SHT30;51335;51.148;6.950;2022-12-18T00:09:06;-6.57;97.70
64858;SHT30;51335;51.148;6.950;2022-12-18T00:09:37;-6.55;98.17
64858;SHT30;51335;51.148;6.950;2022-12-18T00:10:07;-6.58;98.04
64858;SHT30;51335;51.148;6.950;2022-12-18T00:10:37;-6.57;97.99
64858;SHT30;51335;51.148;6.950;2022-12-18T00:11:13;-6.55;97.87
64858;SHT30;51335;51.148;6.950;2022-12-18T00:11:44;-6.58;97.79
64858;SHT30;51335;51.148;6.950;2022-12-18T00:12:14;-6.58;97.71
64858;SHT30;51335;51.148;6.950;2022-12-18T00:12:44;-6.57;97.75
64858;SHT30;51335;51.148;6.950;2022-12-18T00:13:15;-6.52;97.75
64858;SHT30;51335;51.148;6.950;2022-12-18T00:13:45;-6.48;97.66
64858;SHT30;51335;51.148;6.950;2022-12-18T00:14:16;-6.49;97.41
64858;SHT30;51335;51.148;6.950;2022-12-18T00:14:46;-6.49;97.33
64858;SHT30;51335;51.148;6.950;2022-12-18T00:15:16;-6.49;97.30
64858;SHT30;51335;51.148;6.950;2022-12-18T00:15:47;-6.47;97.23
64858;SHT30;51335;51.148;6.950;2022-12-18T00:16:19;-6.42;97.10
64858;SHT30;51335;51.148;6.950;2022-12-18T00:16:50;-6.45;97.03
64858;SHT30;51335;51.148;6.950;2022-12-18T00:17:20;-6.48;96.82
64858;SHT30;51335;51.148;6.950;2022-12-18T00:17:50;-6.48;96.60
64858;SHT30;51335;51.148;6.950;2022-12-18T00:18:21;-6.51;96.60
64858;SHT30;51335;51.148;6.950;2022-12-18T00:18:54;-6.49;96.74
64858;SHT30;51335;51.148;6.950;2022-12-18T00:19:25;-6.57;96.71
64858;SHT30;51335;51.148;6.950;2022-12-18T00:19:55;-6.58;96.61
64858;SHT30;51335;51.148;6.950;2022-12-18T00:20:25;-6.62;96.62
64858;SHT30;51335;51.148;6.950;2022-12-18T00:20:59;-6.61;96.76
64858;SHT30;51335;51.148;6.950;2022-12-18T00:21:31;-6.61;97.04
64858;SHT30;51335;51.148;6.950;2022-12-18T00:22:02;-6.58;97.35
64858;SHT30;51335;51.148;6.950;2022-12-18T00:22:32;-6.55;97.53
64858;SHT30;51335;51.148;6.950;2022-12-18T00:23:02;-6.51;97.70
64858;SHT30;51335;51.148;6.950;2022-12-18T00:23:34;-6.48;97.37
64858;SHT30;51335;51.148;6.950;2022-12-18T00:24:06;-6.54;96.96
64858;SHT30;51335;51.148;6.950;2022-12-18T00:24:36;-6.51;97.10
64858;SHT30;51335;51.148;6.950;2022-12-18T00:25:07;-6.51;97.05
64858;SHT30;51335;51.148;6.950;2022-12-18T00:25:37;-6.52;97.21
64858;SHT30;51335;51.148;6.950;2022-12-18T00:26:18;-6.54;97.15
64858;SHT30;51335;51.148;6.950;2022-12-18T00:26:49;-6.55;96.98
64858;SHT30;51335;51.148;6.950;2022-12-18T00:27:20;-6.58;97.16
64858;SHT30;51335;51.148;6.950;2022-12-18T00:27:50;-6.60;96.99
64858;SHT30;51335;51.148;6.950;2022-12-18T00:28:20;-6.52;97.11
64858;SHT30;51335;51.148;6.950;2022-12-18T00:28:51;-6.51;96.94
64858;SHT30;51335;51.148;6.950;2022-12-18T00:29:22;-6.49;97.02
64858;SHT30;51335;51.148;6.950;2022-12-18T00:29:52;-6.51;97.10
64858;SHT30;51335;51.148;6.950;2022-12-18T00:30:22;-6.54;97.17
64858;SHT30;51335;51.148;6.950;2022-12-18T00:31:03;-6.58;97.02
64858;SHT30;51335;51.148;6.950;2022-12-18T00:31:33;-6.55;97.05
64858;SHT30;51335;51.148;6.950;2022-12-18T00:32:04;-6.58;97.11
64858;SHT30;51335;51.148;6.950;2022-12-18T00:32:34;-6.60;97.02
64858;SHT30;51335;51.148;6.950;2022-12-18T00:33:04;-6.62;97.14
64858;SHT30;51335;51.148;6.950;2022-12-18T00:33:35;-6.61;97.45
64858;SHT30;51335;51.148;6.950;2022-12-18T00:34:06;-6.62;97.51
64858;SHT30;51335;51.148;6.950;2022-12-18T00:34:36;-6.62;97.47
64858;SHT30;51335;51.148;6.950;2022-12-18T00:35:07;-6.62;97.82
64858;SHT30;51335;51.148;6.950;2022-12-18T00:35:37;-6.68;97.60
64858;SHT30;51335;51.148;6.950;2022-12-18T00:36:17;-6.67;97.47
64858;SHT30;51335;51.148;6.950;2022-12-18T00:36:48;-6.71;97.54
64858;SHT30;51335;51.148;6.950;2022-12-18T00:37:18;-6.68;97.61
64858;SHT30;51335;51.148;6.950;2022-12-18T00:37:48;-6.68;97.63
64858;SHT30;51335;51.148;6.950;2022-12-18T00:38:19;-6.67;97.79
64858;SHT30;51335;51.148;6.950;2022-12-18T00:38:49;-6.68;97.72
64858;SHT30;51335;51.148;6.950;2022-12-18T00:39:20;-6.67;97.64
64858;SHT30;51335;51.148;6.950;2022-12-18T00:39:50;-6.65;97.57
64858;SHT30;51335;51.148;6.950;2022-12-18T00:40:20;-6.68;97.62
64858;SHT30;51335;51.148;6.950;2022-12-18T00:40:50;-6.67;97.76
64858;SHT30;51335;51.148;6.950;2022-12-18T00:41:22;-6.64;97.90
64858;SHT30;51335;51.148;6.950;2022-12-18T00:41:52;-6.65;98.00
64858;SHT30;51335;51.148;6.950;2022-12-18T00:42:22;-6.62;98.12
64858;SHT30;51335;51.148;6.950;2022-12-18T00:42:52;-6.61;98.14
64858;SHT30;51335;51.148;6.950;2022-12-18T00:43:23;-6.61;98.08
64858;SHT30;51335;51.148;6.950;2022-12-18T00:43:53;-6.58;98.08
64858;SHT30;51335;51.148;6.950;2022-12-18T00:44:23;-6.57;98.04
64858;SHT30;51335;51.148;6.950;2022-12-18T00:44:54;-6.54;98.02
64858;SHT30;51335;51.148;6.950;2022-12-18T00:45:29;-6.52;97.90
64858;SHT30;51335;51.148;6.950;2022-12-18T00:45:59;-6.51;97.88
64858;SHT30;51335;51.148;6.950;2022-12-18T00:46:30;-6.49;97.83
64858;SHT30;51335;51.148;6.950;2022-12-18T00:47:00;-6.49;97.70
64858;SHT30;51335;51.148;6.950;2022-12-18T00:47:31;-6.47;97.72
64858;SHT30;51335;51.148;6.950;2022-12-18T00:48:01;-6.45;97.66
64858;SHT30;51335;51.148;6.950;2022-12-18T00:48:32;-6.44;97.61
64858;SHT30;51335;51.148;6.950;2022-12-18T00:49:03;-6.44;97.59
64858;SHT30;51335;51.148;6.950;2022-12-18T00:49:33;-6.44;97.63
64858;SHT30;51335;51.148;6.950;2022-12-18T00:50:04;-6.45;97.70
64858;SHT30;51335;51.148;6.950;2022-12-18T00:50:35;-6.44;97.48
64858;SHT30;51335;51.148;6.950;2022-12-18T00:51:05;-6.42;97.47
64858;SHT30;51335;51.148;6.950;2022-12-18T00:51:35;-6.44;97.52
64858;SHT30;51335;51.148;6.950;2022-12-18T00:52:05;-6.42;97.48
64858;SHT30;51335;51.148;6.950;2022-12-18T00:52:36;-6.44;97.41
64858;SHT30;51335;51.148;6.950;2022-12-18T00:53:06;-6.44;97.41
64858;SHT30;51335;51.148;6.950;2022-12-18T00:53:36;-6.38;97.37
64858;SHT30;51335;51.148;6.950;2022-12-18T00:54:07;-6.38;97.33
64858;SHT30;51335;51.148;6.950;2022-12-18T00:54:37;-6.38;97.23
64858;SHT30;51335;51.148;6.950;2022-12-18T00:55:07;-6.37;97.30
64858;SHT30;51335;51.148;6.950;2022-12-18T00:55:41;-6.38;97.22
64858;SHT30;51335;51.148;6.950;2022-12-18T00:56:12;-6.38;97.06
64858;SHT30;51335;51.148;6.950;2022-12-18T00:56:42;-6.41;97.01
64858;SHT30;51335;51.148;6.950;2022-12-18T00:57:12;-6.38;97.02
64858;SHT30;51335;51.148;6.950;2022-12-18T00:57:43;-6.34;96.97
64858;SHT30;51335;51.148;6.950;2022-12-18T00:58:15;-6.34;96.84
64858;SHT30;51335;51.148;6.950;2022-12-18T00:58:45;-6.33;96.88
64858;SHT30;51335;51.148;6.950;2022-12-18T00:59:17;-6.31;96.74
64858;SHT30;51335;51.148;6.950;2022-12-18T00:59:47;-6.28;96.61
64858;SHT30;51335;51.148;6.950;2022-12-18T01:00:18;-6.26;96.55
64858;SHT30;51335;51.148;6.950;2022-12-18T01:00:48;-6.28;96.44
64858;SHT30;51335;51.148;6.950;2022-12-18T01:01:19;-6.31;96.31
64858;SHT30;51335;51.148;6.950;2022-12-18T01:01:49;-6.33;96.20
64858;SHT30;51335;51.148;6.950;2022-12-18T01:02:19;-6.34;96.35
64858;SHT30;51335;51.148;6.950;2022-12-18T01:02:50;-6.36;96.45
64858;SHT30;51335;51.148;6.950;2022-12-18T01:03:20;-6.38;96.44
64858;SHT30;51335;51.148;6.950;2022-12-18T01:03:50;-6.40;96.32
64858;SHT30;51335;51.148;6.950;2022-12-18T01:04:21;-6.40;96.45
64858;SHT30;51335;51.148;6.950;2022-12-18T01:04:51;-6.44;96.50
64858;SHT30;51335;51.148;6.950;2022-12-18T01:05:21;-6.45;96.52
64858;SHT30;51335;51.148;6.950;2022-12-18T01:05:51;-6.45;96.59
64858;SHT30;51335;51.148;6.950;2022-12-18T01:06:22;-6.44;96.56
64858;SHT30;51335;51.148;6.950;2022-12-18T01:06:52;-6.45;96.59
64858;SHT30;51335;51.148;6.950;2022-12-18T01:07:22;-6.47;96.53
64858;SHT30;51335;51.148;6.950;2022-12-18T01:07:53;-6.49;96.52
64858;SHT30;51335;51.148;6.950;2022-12-18T01:08:23;-6.49;96.53
64858;SHT30;51335;51.148;6.950;2022-12-18T01:08:54;-6.48;96.58
64858;SHT30;51335;51.148;6.950;2022-12-18T01:09:24;-6.47;96.68
64858;SHT30;51335;51.148;6.950;2022-12-18T01:09:55;-6.47;96.79
64858;SHT30;51335;51.148;6.950;2022-12-18T01:10:25;-6.49;96.73
64858;SHT30;51335;51.148;6.950;2022-12-18T01:10:56;-6.52;96.65
64858;SHT30;51335;51.148;6.950;2022-12-18T01:11:26;-6.55;96.71
64858;SHT30;51335;51.148;6.950;2022-12-18T01:11:56;-6.47;96.72
64858;SHT30;51335;51.148;6.950;2022-12-18T01:12:26;-6.45;96.79
64858;SHT30;51335;51.148;6.950;2022-12-18T01:12:57;-6.41;96.71
64858;SHT30;51335;51.148;6.950;2022-12-18T01:13:27;-6.37;96.58
64858;SHT30;51335;51.148;6.950;2022-12-18T01:14:00;-6.33;96.48
64858;SHT30;51335;51.148;6.950;2022-12-18T01:14:30;-6.31;96.60
64858;SHT30;51335;51.148;6.950;2022-12-18T01:15:01;-6.34;96.51
64858;SHT30;51335;51.148;6.950;2022-12-18T01:15:31;-6.37;96.49
64858;SHT30;51335;51.148;6.950;2022-12-18T01:16:02;-6.40;96.40
64858;SHT30;51335;51.148;6.950;2022-12-18T01:16:32;-6.40;96.25
64858;SHT30;51335;51.148;6.950;2022-12-18T01:17:02;-6.40;96.27
64858;SHT30;51335;51.148;6.950;2022-12-18T01:17:33;-6.41;96.26
64858;SHT30;51335;51.148;6.950;2022-12-18T01:18:04;-6.41;96.22
64858;SHT30;51335;51.148;6.950;2022-12-18T01:18:34;-6.33;95.96
64858;SHT30;51335;51.148;6.950;2022-12-18T01:19:05;-6.24;95.73
64858;SHT30;51335;51.148;6.950;2022-12-18T01:19:35;-6.26;95.52
64858;SHT30;51335;51.148;6.950;2022-12-18T01:20:07;-6.23;95.31
64858;SHT30;51335;51.148;6.950;2022-12-18T01:20:38;-6.16;95.18
64858;SHT30;51335;51.148;6.950;2022-12-18T01:21:10;-6.18;95.01
64858;SHT30;51335;51.148;6.950;2022-12-18T01:21:41;-6.16;94.95
64858;SHT30;51335;51.148;6.950;2022-12-18T01:22:11;-6.16;95.07
64858;SHT30;51335;51.148;6.950;2022-12-18T01:22:41;-6.20;95.18
64858;SHT30;51335;51.148;6.950;2022-12-18T01:23:12;-6.16;95.09
64858;SHT30;51335;51.148;6.950;2022-12-18T01:23:42;-6.17;95.02
64858;SHT30;51335;51.148;6.950;2022-12-18T01:24:12;-6.23;94.94
64858;SHT30;51335;51.148;6.950;2022-12-18T01:24:43;-6.26;95.03
64858;SHT30;51335;51.148;6.950;2022-12-18T01:25:13;-6.31;95.11
64858;SHT30;51335;51.148;6.950;2022-12-18T01:25:43;-6.34;95.20
64858;SHT30;51335;51.148;6.950;2022-12-18T01:26:15;-6.31;95.36
64858;SHT30;51335;51.148;6.950;2022-12-18T01:26:46;-6.33;95.50
64858;SHT30;51335;51.148;6.950;2022-12-18T01:27:16;-6.37;95.44
64858;SHT30;51335;51.148;6.950;2022-12-18T01:27:46;-6.38;95.53
64858;SHT30;51335;51.148;6.950;2022-12-18T01:28:16;-6.34;95.67
64858;SHT30;51335;51.148;6.950;2022-12-18T01:28:47;-6.33;95.87
64858;SHT30;51335;51.148;6.950;2022-12-18T01:29:17;-6.37;95.73
64858;SHT30;51335;51.148;6.950;2022-12-18T01:29:49;-6.38;95.90
64858;SHT30;51335;51.148;6.950;2022-12-18T01:30:19;-6.41;95.91
64858;SHT30;51335;51.148;6.950;2022-12-18T01:30:49;-6.44;95.80
64858;SHT30;51335;51.148;6.950;2022-12-18T01:31:22;-6.48;95.74
64858;SHT30;51335;51.148;6.950;2022-12-18T01:31:55;-6.48;95.77
64858;SHT30;51335;51.148;6.950;2022-12-18T01:32:25;-6.49;95.76
64858;SHT30;51335;51.148;6.950;2022-12-18T01:32:56;-6.54;95.78
64858;SHT30;51335;51.148;6.950;2022-12-18T01:33:26;-6.48;95.92
64858;SHT30;51335;51.148;6.950;2022-12-18T01:33:59;-6.48;96.08
64858;SHT30;51335;51.148;6.950;2022-12-18T01:34:30;-6.52;96.04
64858;SHT30;51335;51.148;6.950;2022-12-18T01:35:01;-6.55;95.93
64858;SHT30;51335;51.148;6.950;2022-12-18T01:35:31;-6.58;96.27
64858;SHT30;51335;51.148;6.950;2022-12-18T01:36:01;-6.58;96.13
64858;SHT30;51335;51.148;6.950;2022-12-18T01:36:35;-6.65;95.98
64858;SHT30;51335;51.148;6.950;2022-12-18T01:37:06;-6.65;95.98
64858;SHT30;51335;51.148;6.950;2022-12-18T01:37:36;-6.67;96.00
64858;SHT30;51335;51.148;6.950;2022-12-18T01:38:06;-6.69;96.03
64858;SHT30;51335;51.148;6.950;2022-12-18T01:38:36;-6.72;96.15
64858;SHT30;51335;51.148;6.950;2022-12-18T01:39:11;-6.69;96.28
64858;SHT30;51335;51.148;6.950;2022-12-18T01:40:19;-6.72;96.28
64858;SHT30;51335;51.148;6.950;2022-12-18T01:40:57;-6.64;96.23
64858;SHT30;51335;51.148;6.950;2022-12-18T01:41:29;-6.52;96.21
64858;SHT30;51335;51.148;6.950;2022-12-18T01:42:00;-6.58;95.88
64858;SHT30;51335;51.148;6.950;2022-12-18T01:42:32;-6.64;95.69
64858;SHT30;51335;51.148;6.950;2022-12-18T01:43:03;-6.57;95.71
64858;SHT30;51335;51.148;6.950;2022-12-18T01:43:44;-6.54;95.61
64858;SHT30;51335;51.148;6.950;2022-12-18T01:45:30;-6.57;95.76
64858;SHT30;51335;51.148;6.950;2022-12-18T01:46:01;-6.55;95.73
64858;SHT30;51335;51.148;6.950;2022-12-18T01:46:31;-6.49;95.79
64858;SHT30;51335;51.148;6.950;2022-12-18T01:47:02;-6.44;96.09
64858;SHT30;51335;51.148;6.950;2022-12-18T01:48:06;-6.45;95.97
64858;SHT30;51335;51.148;6.950;2022-12-18T01:48:38;-6.47;96.12
64858;SHT30;51335;51.148;6.950;2022-12-18T01:49:09;-6.51;95.99
64858;SHT30;51335;51.148;6.950;2022-12-18T01:49:39;-6.41;96.14
64858;SHT30;51335;51.148;6.950;2022-12-18T01:50:19;-6.38;96.07
64858;SHT30;51335;51.148;6.950;2022-12-18T01:50:50;-6.34;96.07
64858;SHT30;51335;51.148;6.950;2022-12-18T01:51:20;-6.30;95.89
64858;SHT30;51335;51.148;6.950;2022-12-18T01:51:51;-6.31;95.70
64858;SHT30;51335;51.148;6.950;2022-12-18T01:52:24;-6.34;95.58
64858;SHT30;51335;51.148;6.950;2022-12-18T01:53:26;-6.31;95.62
64858;SHT30;51335;51.148;6.950;2022-12-18T01:53:56;-6.28;95.53
64858;SHT30;51335;51.148;6.950;2022-12-18T01:54:30;-6.31;95.25
64858;SHT30;51335;51.148;6.950;2022-12-18T01:55:02;-6.27;95.26
64858;SHT30;51335;51.148;6.950;2022-12-18T01:55:38;-6.31;95.46
64858;SHT30;51335;51.148;6.950;2022-12-18T01:56:16;-6.37;95.24
64858;SHT30;51335;51.148;6.950;2022-12-18T01:56:47;-6.34;95.30
64858;SHT30;51335;51.148;6.950;2022-12-18T01:57:18;-6.31;95.20
64858;SHT30;51335;51.148;6.950;2022-12-18T01:57:51;-6.24;95.13
64858;SHT30;51335;51.148;6.950;2022-12-18T01:59:15;-6.30;95.30
64858;SHT30;51335;51.148;6.950;2022-12-18T01:59:49;-6.33;95.26
64858;SHT30;51335;51.148;6.950;2022-12-18T02:00:22;-6.31;95.54
64858;SHT30;51335;51.148;6.950;2022-12-18T02:00:54;-6.33;95.50
64858;SHT30;51335;51.148;6.950;2022-12-18T02:01:25;-6.33;95.60
64858;SHT30;51335;51.148;6.950;2022-12-18T02:01:56;-6.34;95.58
64858;SHT30;51335;51.148;6.950;2022-12-18T02:02:28;-6.37;95.55
64858;SHT30;51335;51.148;6.950;2022-12-18T02:02:59;-6.41;95.59
64858;SHT30;51335;51.148;6.950;2022-12-18T02:03:29;-6.41;95.72
64858;SHT30;51335;51.148;6.950;2022-12-18T02:04:19;-6.45;95.80
64858;SHT30;51335;51.148;6.950;2022-12-18T02:04:49;-6.41;95.88
64858;SHT30;51335;51.148;6.950;2022-12-18T02:05:32;-6.40;96.16
64858;SHT30;51335;51.148;6.950;2022-12-18T02:06:56;-6.49;96.03
64858;SHT30;51335;51.148;6.950;2022-12-18T02:10:30;-6.48;96.33
64858;SHT30;51335;51.148;6.950;2022-12-18T02:12:42;-6.58;96.20
64858;SHT30;51335;51.148;6.950;2022-12-18T02:13:28;-6.57;96.40
64858;SHT30;51335;51.148;6.950;2022-12-18T02:14:18;-6.62;96.19
64858;SHT30;51335;51.148;6.950;2022-12-18T02:15:01;-6.58;96.17
64858;SHT30;51335;51.148;6.950;2022-12-18T02:15:54;-6.61;96.26
64858;SHT30;51335;51.148;6.950;2022-12-18T02:16:34;-6.62;96.31
64858;SHT30;51335;51.148;6.950;2022-12-18T02:17:18;-6.57;96.44
64858;SHT30;51335;51.148;6.950;2022-12-18T02:17:57;-6.55;96.28
64858;SHT30;51335;51.148;6.950;2022-12-18T02:18:32;-6.51;96.33
64858;SHT30;51335;51.148;6.950;2022-12-18T02:19:21;-6.49;96.14
64858;SHT30;51335;51.148;6.950;2022-12-18T02:20:16;-6.52;96.01
64858;SHT30;51335;51.148;6.950;2022-12-18T02:20:55;-6.55;96.39
64858;SHT30;51335;51.148;6.950;2022-12-18T02:21:47;-6.49;96.30
64858;SHT30;51335;51.148;6.950;2022-12-18T02:23:56;-6.55;96.24
64858;SHT30;51335;51.148;6.950;2022-12-18T02:24:50;-6.54;96.27
64858;SHT30;51335;51.148;6.950;2022-12-18T02:26:59;-6.55;96.34
64858;SHT30;51335;51.148;6.950;2022-12-18T02:27:32;-6.58;96.35
64858;SHT30;51335;51.148;6.950;2022-12-18T02:28:06;-6.52;96.49
64858;SHT30;51335;51.148;6.950;2022-12-18T02:28:46;-6.52;96.85
64858;SHT30;51335;51.148;6.950;2022-12-18T02:29:24;-6.58;96.67
64858;SHT30;51335;51.148;6.950;2022-12-18T02:29:57;-6.58;96.51
64858;SHT30;51335;51.148;6.950;2022-12-18T02:30:31;-6.54;96.61
64858;SHT30;51335;51.148;6.950;2022-12-18T02:31:07;-6.55;96.60
64858;SHT30;51335;51.148;6.950;2022-12-18T02:31:49;-6.58;96.57
64858;SHT30;51335;51.148;6.950;2022-12-18T02:32:30;-6.49;96.77
64858;SHT30;51335;51.148;6.950;2022-12-18T02:33:04;-6.49;96.81
64858;SHT30;51335;51.148;6.950;2022-12-18T02:33:35;-6.52;96.75
64858;SHT30;51335;51.148;6.950;2022-12-18T02:34:08;-6.55;96.59
64858;SHT30;51335;51.148;6.950;2022-12-18T02:34:40;-6.57;96.51
64858;SHT30;51335;51.148;6.950;2022-12-18T02:35:15;-6.55;96.48
64858;SHT30;51335;51.148;6.950;2022-12-18T02:35:47;-6.60;96.48
64858;SHT30;51335;51.148;6.950;2022-12-18T02:36:19;-6.61;96.48
64858;SHT30;51335;51.148;6.950;2022-12-18T02:36:53;-6.64;96.51
64858;SHT30;51335;51.148;6.950;2022-12-18T02:37:25;-6.67;96.45
64858;SHT30;51335;51.148;6.950;2022-12-18T02:37:57;-6.67;96.46
64858;SHT30;51335;51.148;6.950;2022-12-18T02:38:29;-6.68;96.54
64858;SHT30;51335;51.148;6.950;2022-12-18T02:39:02;-6.68;96.72
64858;SHT30;51335;51.148;6.950;2022-12-18T02:39:33;-6.68;96.72
64858;SHT30;51335;51.148;6.950;2022-12-18T02:40:05;-6.68;96.72
64858;SHT30;51335;51.148;6.950;2022-12-18T02:40:36;-6.69;96.64
64858;SHT30;51335;51.148;6.950;2022-12-18T02:41:08;-6.67;96.71
64858;SHT30;51335;51.148;6.950;2022-12-18T02:41:38;-6.71;96.83
64858;SHT30;51335;51.148;6.950;2022-12-18T02:42:10;-6.71;96.77
64858;SHT30;51335;51.148;6.950;2022-12-18T02:42:41;-6.71;96.73
64858;SHT30;51335;51.148;6.950;2022-12-18T02:43:13;-6.69;96.80
64858;SHT30;51335;51.148;6.950;2022-12-18T02:43:56;-6.71;96.85
64858;SHT30;51335;51.148;6.950;2022-12-18T02:44:26;-6.69;96.86
64858;SHT30;51335;51.148;6.950;2022-12-18T02:44:57;-6.68;96.80
64858;SHT30;51335;51.148;6.950;2022-12-18T02:45:27;-6.71;96.73
64858;SHT30;51335;51.148;6.950;2022-12-18T02:45:59;-6.72;96.69
64858;SHT30;51335;51.148;6.950;2022-12-18T02:46:48;-6.62;96.75
64858;SHT30;51335;51.148;6.950;2022-12-18T02:47:24;-6.64;96.62
64858;SHT30;51335;51.148;6.950;2022-12-18T02:47:56;-6.58;96.52
64858;SHT30;51335;51.148;6.950;2022-12-18T02:48:33;-6.48;96.43
64858;SHT30;51335;51.148;6.950;2022-12-18T02:50:22;-6.48;96.21
64858;SHT30;51335;51.148;6.950;2022-12-18T02:51:03;-6.52;96.16
64858;SHT30;51335;51.148;6.950;2022-12-18T02:54:23;-6.54;96.11
64858;SHT30;51335;51.148;6.950;2022-12-18T02:56:42;-6.57;96.23
64858;SHT30;51335;51.148;6.950;2022-12-18T02:57:49;-6.62;96.49
64858;SHT30;51335;51.148;6.950;2022-12-18T02:58:47;-6.65;96.66
64858;SHT30;51335;51.148;6.950;2022-12-18T02:59:36;-6.68;96.75
64858;SHT30;51335;51.148;6.950;2022-12-18T03:00:24;-6.65;96.84
64858;SHT30;51335;51.148;6.950;2022-12-18T03:01:03;-6.68;97.13
64858;SHT30;51335;51.148;6.950;2022-12-18T03:01:54;-6.68;97.25
64858;SHT30;51335;51.148;6.950;2022-12-18T03:03:02;-6.68;97.55
64858;SHT30;51335;51.148;6.950;2022-12-18T03:03:41;-6.71;97.33
64858;SHT30;51335;51.148;6.950;2022-12-18T03:04:23;-6.67;97.51
64858;SHT30;51335;51.148;6.950;2022-12-18T03:05:02;-6.67;97.59
64858;SHT30;51335;51.148;6.950;2022-12-18T03:05:59;-6.67;97.37
64858;SHT30;51335;51.148;6.950;2022-12-18T03:06:35;-6.65;97.21
64858;SHT30;51335;51.148;6.950;2022-12-18T03:07:21;-6.62;97.35
64858;SHT30;51335;51.148;6.950;2022-12-18T03:07:58;-6.65;97.20
64858;SHT30;51335;51.148;6.950;2022-12-18T03:08:44;-6.69;97.18
64858;SHT30;51335;51.148;6.950;2022-12-18T03:09:36;-6.64;97.03
64858;SHT30;51335;51.148;6.950;2022-12-18T03:10:11;-6.69;97.07
64858;SHT30;51335;51.148;6.950;2022-12-18T03:11:04;-6.67;97.03
64858;SHT30;51335;51.148;6.950;2022-12-18T03:11:38;-6.55;96.90
64858;SHT30;51335;51.148;6.950;2022-12-18T03:12:17;-6.60;96.85
64858;SHT30;51335;51.148;6.950;2022-12-18T03:12:54;-6.62;96.75
64858;SHT30;51335;51.148;6.950;2022-12-18T03:14:13;-6.68;96.52
64858;SHT30;51335;51.148;6.950;2022-12-18T03:14:59;-6.69;96.62
64858;SHT30;51335;51.148;6.950;2022-12-18T03:15:35;-6.74;96.67
64858;SHT30;51335;51.148;6.950;2022-12-18T03:16:10;-6.76;96.73
64858;SHT30;51335;51.148;6.950;2022-12-18T03:16:42;-6.78;96.84
64858;SHT30;51335;51.148;6.950;2022-12-18T03:17:15;-6.76;96.96
64858;SHT30;51335;51.148;6.950;2022-12-18T03:17:59;-6.75;97.02
64858;SHT30;51335;51.148;6.950;2022-12-18T03:18:36;-6.79;97.05
64858;SHT30;51335;51.148;6.950;2022-12-18T03:19:12;-6.79;97.22
64858;SHT30;51335;51.148;6.950;2022-12-18T03:19:45;-6.81;97.28
64858;SHT30;51335;51.148;6.950;2022-12-18T03:20:19;-6.82;97.20
64858;SHT30;51335;51.148;6.950;2022-12-18T03:20:51;-6.84;97.25
64858;SHT30;51335;51.148;6.950;2022-12-18T03:21:29;-6.82;97.17
64858;SHT30;51335;51.148;6.950;2022-12-18T03:22:03;-6.85;97.27
64858;SHT30;51335;51.148;6.950;2022-12-18T03:22:35;-6.88;97.49
64858;SHT30;51335;51.148;6.950;2022-12-18T03:23:12;-6.85;97.53
64858;SHT30;51335;51.148;6.950;2022-12-18T03:23:48;-6.86;97.63
64858;SHT30;51335;51.148;6.950;2022-12-18T03:24:20;-6.86;97.64
64858;SHT30;51335;51.148;6.950;2022-12-18T03:24:52;-6.86;97.67
64858;SHT30;51335;51.148;6.950;2022-12-18T03:25:25;-6.86;97.82
64858;SHT30;51335;51.148;6.950;2022-12-18T03:25:59;-6.86;97.87
64858;SHT30;51335;51.148;6.950;2022-12-18T03:26:31;-6.88;97.75
64858;SHT30;51335;51.148;6.950;2022-12-18T03:27:03;-6.86;97.84
64858;SHT30;51335;51.148;6.950;2022-12-18T03:27:37;-6.85;97.91
64858;SHT30;51335;51.148;6.950;2022-12-18T03:28:13;-6.88;97.98
64858;SHT30;51335;51.148;6.950;2022-12-18T03:28:48;-6.88;97.89
64858;SHT30;51335;51.148;6.950;2022-12-18T03:29:23;-6.89;97.81
64858;SHT30;51335;51.148;6.950;2022-12-18T03:30:14;-6.93;97.71
64858;SHT30;51335;51.148;6.950;2022-12-18T03:30:46;-6.91;97.72
64858;SHT30;51335;51.148;6.950;2022-12-18T03:31:19;-6.93;97.67
64858;SHT30;51335;51.148;6.950;2022-12-18T03:31:55;-6.92;97.74
64858;SHT30;51335;51.148;6.950;2022-12-18T03:32:31;-6.92;97.90
64858;SHT30;51335;51.148;6.950;2022-12-18T03:33:05;-6.93;97.97
64858;SHT30;51335;51.148;6.950;2022-12-18T03:33:41;-6.92;97.99
64858;SHT30;51335;51.148;6.950;2022-12-18T03:34:19;-6.92;98.28
64858;SHT30;51335;51.148;6.950;2022-12-18T03:34:53;-6.92;98.24
64858;SHT30;51335;51.148;6.950;2022-12-18T03:35:29;-6.89;98.14
64858;SHT30;51335;51.148;6.950;2022-12-18T03:36:01;-6.89;98.28
64858;SHT30;51335;51.148;6.950;2022-12-18T03:36:31;-6.91;98.19
64858;SHT30;51335;51.148;6.950;2022-12-18T03:37:02;-6.89;98.21
64858;SHT30;51335;51.148;6.950;2022-12-18T03:37:33;-6.91;98.12
64858;SHT30;51335;51.148;6.950;2022-12-18T03:38:04;-6.88;98.03
64858;SHT30;51335;51.148;6.950;2022-12-18T03:38:34;-6.91;97.98
64858;SHT30;51335;51.148;6.950;2022-12-18T03:39:05;-6.91;97.99
64858;SHT30;51335;51.148;6.950;2022-12-18T03:39:36;-6.88;97.85
64858;SHT30;51335;51.148;6.950;2022-12-18T03:40:07;-6.89;97.70
64858;SHT30;51335;51.148;6.950;2022-12-18T03:41:34;-6.91;97.62
64858;SHT30;51335;51.148;6.950;2022-12-18T03:42:14;-6.88;97.74
64858;SHT30;51335;51.148;6.950;2022-12-18T03:42:51;-6.88;97.66
64858;SHT30;51335;51.148;6.950;2022-12-18T03:44:21;-6.89;97.80
64858;SHT30;51335;51.148;6.950;2022-12-18T03:45:10;-6.88;97.92
64858;SHT30;51335;51.148;6.950;2022-12-18T03:45:46;-6.89;97.87
64858;SHT30;51335;51.148;6.950;2022-12-18T03:46:28;-6.91;97.89
64858;SHT30;51335;51.148;6.950;2022-12-18T03:47:05;-6.91;97.90
64858;SHT30;51335;51.148;6.950;2022-12-18T03:48:42;-6.91;98.31
64858;SHT30;51335;51.148;6.950;2022-12-18T03:50:13;-6.91;98.18
64858;SHT30;51335;51.148;6.950;2022-12-18T03:50:49;-6.89;98.05
64858;SHT30;51335;51.148;6.950;2022-12-18T03:51:42;-6.88;98.03
64858;SHT30;51335;51.148;6.950;2022-12-18T03:54:08;-6.89;98.29
64858;SHT30;51335;51.148;6.950;2022-12-18T03:54:41;-6.92;98.19
64858;SHT30;51335;51.148;6.950;2022-12-18T03:55:12;-6.89;98.14
64858;SHT30;51335;51.148;6.950;2022-12-18T03:55:43;-6.91;98.13
64858;SHT30;51335;51.148;6.950;2022-12-18T03:56:15;-6.91;98.00
64858;SHT30;51335;51.148;6.950;2022-12-18T03:56:58;-6.93;97.94